Time;durP1;ratioP1;P1;durP2;ratioP2;P2;SDS_P1;SDS_P2;PMS_P1;PMS_P2;Temp;Humidity;BMP_temperature;BMP_pressure;BME280_temperature;BME280_humidity;BME280_pressure;Samples;Min_cycle;Max_cycle;Signal;HPM_P1;HPM_P2
2022/11/01 00:01:00;;;;;;;;;;;;;;;18.58;43.32;99484.19;4973610;28;20369;-76
2022/11/01 00:03:25;;;;;;;;;;;;;;;18.57;43.23;99479.88;4973398;28;20421;-75
2022/11/01 00:05:51;;;;;;;;;;;;;;;18.55;43.37;99486.28;4973344;28;19918;-75
2022/11/01 00:08:16;;;;;;;;;;;;;;;18.52;43.40;99479.50;4974781;28;19918;-75
2022/11/01 00:10:41;;;;;;;;;;;;;;;18.52;43.42;99489.25;4974424;28;19918;-75
2022/11/01 00:13:06;;;;;;;;;;;;;;;18.48;43.41;99478.13;4973266;28;19918;-75
2022/11/01 00:15:32;;;;;;;;;;;;;;;18.48;43.48;99477.28;4973180;28;20353;-76
2022/11/01 00:17:57;;;;;;;;;;;;;;;18.47;43.24;99488.84;4989395;28;19925;-75
2022/11/01 00:20:22;;;;;;;;;;;;;;;18.43;43.67;99483.84;4977301;28;19927;-76
2022/11/01 00:22:48;;;;;;;;;;;;;;;18.42;43.65;99484.00;4955031;29;19961;-76
2022/11/01 00:25:13;;;;;;;;;;;;;;;18.38;43.91;99478.19;4955237;29;19949;-75
2022/11/01 00:27:38;;;;;;;;;;;;;;;18.38;43.81;99482.66;4953192;29;19930;-75
2022/11/01 00:30:04;;;;;;;;;;;;;;;18.36;43.93;99485.44;4953746;29;19925;-75
2022/11/01 00:32:29;;;;;;;;;;;;;;;18.34;43.81;99476.81;4953854;29;19919;-76
2022/11/01 00:34:54;;;;;;;;;;;;;;;18.32;43.83;99485.88;4953486;29;20046;-76
2022/11/01 00:37:20;;;;;;;;;;;;;;;18.32;43.81;99480.59;4953944;29;19926;-76
2022/11/01 00:39:45;;;;;;;;;;;;;;;18.30;44.07;99477.28;4954744;29;19918;-76
2022/11/01 00:42:10;;;;;;;;;;;;;;;18.26;44.11;99480.22;4953733;29;19918;-76
2022/11/01 00:44:35;;;;;;;;;;;;;;;18.26;43.97;99476.72;4953670;29;19919;-75
2022/11/01 00:47:01;;;;;;;;;;;;;;;18.25;44.13;99483.00;4954547;29;20392;-75
2022/11/01 00:49:26;;;;;;;;;;;;;;;18.25;44.17;99483.84;4953178;29;19948;-75
2022/11/01 00:51:51;;;;;;;;;;;;;;;18.22;44.10;99484.13;4953574;29;19934;-75
2022/11/01 00:54:16;;;;;;;;;;;;;;;18.19;44.14;99479.13;4953130;28;19918;-75
2022/11/01 00:56:42;;;;;;;;;;;;;;;18.17;44.14;99478.47;4954480;29;19919;-75
2022/11/01 00:59:07;;;;;;;;;;;;;;;18.18;44.06;99477.47;4953614;29;20013;-75
2022/11/01 01:01:32;;;;;;;;;;;;;;;18.14;44.33;99476.13;4953383;29;19922;-75
2022/11/01 01:03:58;;;;;;;;;;;;;;;18.13;44.34;99479.72;4953065;29;20342;-75
2022/11/01 01:06:23;;;;;;;;;;;;;;;18.12;44.21;99474.59;4954128;29;19922;-75
2022/11/01 01:08:48;;;;;;;;;;;;;;;18.11;44.42;99475.59;4953183;29;20425;-75
2022/11/01 01:11:14;;;;;;;;;;;;;;;18.08;44.34;99468.78;4953621;29;19919;-75
2022/11/01 01:13:39;;;;;;;;;;;;;;;18.07;44.56;99469.75;4953345;29;20388;-77
2022/11/01 01:16:08;;;;;;;;;;;;;;;18.05;44.47;99472.53;4969195;28;20314;-77
2022/11/01 01:18:34;;;;;;;;;;;;;;;18.05;44.61;99474.34;4953113;29;20275;-77
2022/11/01 01:21:02;;;;;;;;;;;;;;;18.03;44.47;99466.56;4953555;29;19977;-76
2022/11/01 01:23:28;;;;;;;;;;;;;;;18.02;44.50;99469.38;4955776;29;19925;-76
2022/11/01 01:25:53;;;;;;;;;;;;;;;18.01;44.63;99470.31;4953990;29;20017;-75
2022/11/01 01:28:18;;;;;;;;;;;;;;;17.98;44.54;99468.84;4953297;28;19969;-76
2022/11/01 01:30:44;;;;;;;;;;;;;;;17.96;44.57;99470.78;4954302;29;20306;-75
2022/11/01 01:33:09;;;;;;;;;;;;;;;17.95;44.53;99477.06;4953053;29;19919;-75
2022/11/01 01:35:34;;;;;;;;;;;;;;;17.94;44.60;99464.00;4953720;28;19923;-75
2022/11/01 01:38:00;;;;;;;;;;;;;;;17.93;44.60;99467.59;4951790;29;19922;-75
2022/11/01 01:40:25;;;;;;;;;;;;;;;17.92;44.73;99463.28;4953830;29;19918;-76
2022/11/01 01:42:50;;;;;;;;;;;;;;;17.90;44.71;99466.09;4952840;29;19977;-75
2022/11/01 01:45:20;;;;;;;;;;;;;;;17.90;44.49;99468.75;4954047;29;19914;-74
2022/11/01 01:47:46;;;;;;;;;;;;;;;17.88;44.58;99465.38;4952852;29;19925;-76
2022/11/01 01:50:18;;;;;;;;;;;;;;;17.85;44.83;99463.88;4936835;29;19918;-76
2022/11/01 01:53:04;;;;;;;;;;;;;;;17.83;44.93;99464.97;4952882;29;19918;-76
2022/11/01 01:55:36;;;;;;;;;;;;;;;17.80;44.87;99458.16;4953058;29;19930;-76
2022/11/01 01:58:01;;;;;;;;;;;;;;;17.78;44.92;99460.13;4936460;29;19926;-76
2022/11/01 02:00:27;;;;;;;;;;;;;;;17.77;44.79;99466.38;4954132;29;19918;-76
2022/11/01 02:02:52;;;;;;;;;;;;;;;17.75;44.91;99457.78;4953089;29;19925;-76
2022/11/01 02:05:30;;;;;;;;;;;;;;;17.75;44.89;99462.25;4952755;28;20362;-74
2022/11/01 02:07:55;;;;;;;;;;;;;;;17.73;45.00;99467.66;4940250;29;19925;-76
2022/11/01 02:10:21;;;;;;;;;;;;;;;17.72;45.10;99463.34;4957455;29;20008;-75
2022/11/01 02:12:47;;;;;;;;;;;;;;;17.70;44.85;99467.94;4956619;29;19948;-76
2022/11/01 02:15:12;;;;;;;;;;;;;;;17.69;44.95;99471.56;4956394;29;20374;-76
2022/11/01 02:17:40;;;;;;;;;;;;;;;17.68;45.02;99475.19;4957281;29;19918;-77
2022/11/01 02:20:23;;;;;;;;;;;;;;;17.66;45.09;99477.97;4957540;29;20005;-76
2022/11/01 02:23:07;;;;;;;;;;;;;;;17.64;45.10;99473.81;4957962;29;20097;-76
2022/11/01 02:25:47;;;;;;;;;;;;;;;17.61;45.19;99474.91;4957359;29;19922;-76
2022/11/01 02:28:22;;;;;;;;;;;;;;;17.59;45.24;99482.16;4957331;29;19974;-76
2022/11/01 02:31:07;;;;;;;;;;;;;;;17.57;45.38;99475.34;4957216;29;19918;-75
2022/11/01 02:33:42;;;;;;;;;;;;;;;17.54;45.40;99479.13;4863518;29;19926;-76
2022/11/01 02:36:11;;;;;;;;;;;;;;;17.52;45.51;99479.25;4863800;29;19931;-76
2022/11/01 02:38:36;;;;;;;;;;;;;;;17.52;45.37;99481.91;4863700;29;19983;-76
2022/11/01 02:41:10;;;;;;;;;;;;;;;17.50;45.27;99478.56;4879024;29;20021;-76
2022/11/01 02:43:41;;;;;;;;;;;;;;;17.50;45.47;99483.00;4863489;29;20067;-76
2022/11/01 02:48:50;;;;;;;;;;;;;;;17.47;45.67;99483.28;4866197;29;19973;-76
2022/11/01 02:51:16;;;;;;;;;;;;;;;17.44;45.61;99483.59;4863247;29;19920;-76
2022/11/01 02:53:41;;;;;;;;;;;;;;;17.43;45.69;99482.75;4863559;29;19923;-76
2022/11/01 02:56:08;;;;;;;;;;;;;;;17.41;45.55;99484.72;4863384;29;19920;-76
2022/11/01 02:58:33;;;;;;;;;;;;;;;17.39;45.68;99486.66;4863498;29;19920;-76
2022/11/01 03:00:59;;;;;;;;;;;;;;;17.39;45.76;99485.81;4863384;29;20026;-77
2022/11/01 03:03:28;;;;;;;;;;;;;;;17.36;45.92;99484.28;4878947;29;20018;-75
2022/11/01 03:05:56;;;;;;;;;;;;;;;17.35;45.75;99482.66;4878256;29;19924;-75
2022/11/01 03:08:22;;;;;;;;;;;;;;;17.35;45.90;99488.75;4863119;29;19920;-76
2022/11/01 03:10:51;;;;;;;;;;;;;;;17.35;45.95;99491.38;4917666;28;20385;-75
2022/11/01 03:13:20;;;;;;;;;;;;;;;17.34;45.89;99492.34;4958222;28;19918;-75
2022/11/01 03:15:49;;;;;;;;;;;;;;;17.32;45.99;99496.13;4975640;28;19918;-75
2022/11/01 03:18:31;;;;;;;;;;;;;;;17.32;45.90;99496.94;4958735;28;19997;-75
2022/11/01 03:20:58;;;;;;;;;;;;;;;17.30;45.90;99498.91;4958462;28;19922;-75
2022/11/01 03:23:39;;;;;;;;;;;;;;;17.29;45.80;99494.59;4958128;28;19922;-76
2022/11/01 03:26:04;;;;;;;;;;;;;;;17.27;46.13;99496.53;4958071;28;20360;-76
2022/11/01 03:28:37;;;;;;;;;;;;;;;17.26;46.07;99500.16;4958327;28;19918;-76
2022/11/01 03:31:06;;;;;;;;;;;;;;;17.26;46.07;99497.50;4975442;28;19922;-75
2022/11/01 03:33:36;;;;;;;;;;;;;;;17.23;46.20;99500.44;4974091;28;19922;-76
2022/11/01 03:36:02;;;;;;;;;;;;;;;17.22;46.03;99501.41;4961103;28;19932;-75
2022/11/01 03:38:28;;;;;;;;;;;;;;;17.23;46.26;99507.53;4973728;28;19918;-75
2022/11/01 03:40:55;;;;;;;;;;;;;;;17.20;46.15;99502.53;4974135;28;19984;-75
2022/11/01 03:43:20;;;;;;;;;;;;;;;17.19;46.03;99504.34;4974017;28;19918;-75
2022/11/01 03:45:45;;;;;;;;;;;;;;;17.18;46.35;99514.03;4974008;28;19925;-76
2022/11/01 03:48:11;;;;;;;;;;;;;;;17.16;46.29;99501.97;4973816;28;19925;-75
2022/11/01 03:50:38;;;;;;;;;;;;;;;17.15;46.40;99506.41;4973899;28;20370;-75
2022/11/01 03:53:04;;;;;;;;;;;;;;;17.13;46.31;99508.34;4975482;28;19918;-75
2022/11/01 03:55:29;;;;;;;;;;;;;;;17.13;46.46;99510.19;4974447;28;20012;-75
2022/11/01 03:57:58;;;;;;;;;;;;;;;17.11;46.46;99510.31;4974335;28;20415;-75
2022/11/01 04:00:30;;;;;;;;;;;;;;;17.08;46.43;99513.22;4990009;28;20008;-76
2022/11/01 04:02:56;;;;;;;;;;;;;;;17.10;46.48;99515.72;4974912;28;19922;-76
2022/11/01 04:05:22;;;;;;;;;;;;;;;17.09;46.41;99516.69;4979290;28;20299;-76
2022/11/01 04:07:47;;;;;;;;;;;;;;;17.09;46.56;99516.69;4954726;29;19918;-76
2022/11/01 04:10:12;;;;;;;;;;;;;;;17.09;46.60;99514.88;4956413;29;19918;-75
2022/11/01 04:12:38;;;;;;;;;;;;;;;17.08;46.42;99515.88;4955352;29;20457;-74
2022/11/01 04:20:32;;;;;;;;;;;;;;;17.06;46.62;99515.16;4954403;29;19985;-77
2022/11/01 04:22:58;;;;;;;;;;;;;;;17.07;46.39;99523.91;4954429;29;20370;-76
2022/11/01 04:25:23;;;;;;;;;;;;;;;17.06;46.63;99524.88;4953671;29;20013;-74
2022/11/01 04:27:48;;;;;;;;;;;;;;;17.05;46.60;99526.69;4953661;29;19950;-76
2022/11/01 04:30:14;;;;;;;;;;;;;;;17.04;46.60;99525.03;4954292;28;19922;-75
2022/11/01 04:32:48;;;;;;;;;;;;;;;17.04;46.65;99518.91;4970213;28;19919;-86
2022/11/01 04:35:13;;;;;;;;;;;;;;;17.03;46.65;99517.25;4956100;28;20289;-83
2022/11/01 04:37:39;;;;;;;;;;;;;;;17.54;56.42;99524.00;4955756;28;19927;-74
2022/11/01 04:40:06;;;;;;;;;;;;;;;17.87;55.38;99520.00;4918857;29;19922;-74
2022/11/01 04:42:35;;;;;;;;;;;;;;;18.12;54.85;99512.41;4919395;29;19919;-73
2022/11/01 04:45:00;;;;;;;;;;;;;;;18.24;53.82;99513.06;4918906;29;19954;-84
2022/11/01 04:47:26;;;;;;;;;;;;;;;18.22;52.55;99518.47;4918768;29;19972;-78
2022/11/01 04:49:51;;;;;;;;;;;;;;;18.06;50.78;99516.47;4918794;29;19919;-79
2022/11/01 04:52:16;;;;;;;;;;;;;;;17.93;49.85;99517.78;4935392;29;19919;-77
2022/11/01 04:54:41;;;;;;;;;;;;;;;17.79;49.38;99519.91;4935829;29;19926;-73
2022/11/01 04:57:07;;;;;;;;;;;;;;;17.71;48.72;99520.63;4902687;29;19926;-74
2022/11/01 04:59:32;;;;;;;;;;;;;;;17.70;48.52;99520.75;4918760;29;19929;-75
2022/11/01 05:01:57;;;;;;;;;;;;;;;17.66;48.00;99520.22;4918845;29;19919;-76
2022/11/01 05:04:23;;;;;;;;;;;;;;;17.66;47.77;99522.84;4918554;29;19926;-74
2022/11/01 05:06:48;;;;;;;;;;;;;;;17.73;47.34;99526.56;4918081;29;19930;-76
2022/11/01 05:09:13;;;;;;;;;;;;;;;17.85;46.49;99513.19;4918607;29;19927;-76
2022/11/01 05:11:39;;;;;;;;;;;;;;;17.99;46.40;99525.94;4918986;29;19923;-74
2022/11/01 05:14:04;;;;;;;;;;;;;;;18.11;45.84;99520.50;4935332;29;19927;-75
2022/11/01 05:16:29;;;;;;;;;;;;;;;18.27;45.47;99524.16;4935451;29;20354;-74
2022/11/01 05:18:54;;;;;;;;;;;;;;;18.45;44.90;99520.72;4935648;29;20413;-74
2022/11/01 05:21:20;;;;;;;;;;;;;;;18.64;44.31;99519.75;4918010;29;20392;-75
2022/11/01 05:23:48;;;;;;;;;;;;;;;18.85;43.71;99522.16;4935372;29;19954;-75
2022/11/01 05:26:13;;;;;;;;;;;;;;;19.08;43.05;99527.78;4918499;29;20005;-75
2022/11/01 05:28:38;;;;;;;;;;;;;;;19.27;42.72;99532.09;4935345;29;20458;-77
2022/11/01 05:31:04;;;;;;;;;;;;;;;19.47;42.24;99535.38;4918292;29;19919;-76
2022/11/01 05:33:29;;;;;;;;;;;;;;;19.70;41.83;99533.06;4935692;29;19918;-74
2022/11/01 05:35:54;;;;;;;;;;;;;;;19.94;41.24;99538.66;4919849;29;19941;-74
2022/11/01 05:38:20;;;;;;;;;;;;;;;20.15;40.95;99541.75;4934108;29;19958;-76
2022/11/01 05:40:45;;;;;;;;;;;;;;;20.38;40.52;99531.41;4936035;29;20010;-76
2022/11/01 05:43:10;;;;;;;;;;;;;;;20.67;40.12;99540.78;4921881;29;19919;-76
2022/11/01 05:45:36;;;;;;;;;;;;;;;21.02;39.67;99541.50;4939242;29;19925;-76
2022/11/01 05:48:02;;;;;;;;;;;;;;;21.41;38.77;99538.19;4939355;29;19919;-75
2022/11/01 05:50:27;;;;;;;;;;;;;;;21.88;38.07;99546.41;4937165;29;19954;-76
2022/11/01 05:52:52;;;;;;;;;;;;;;;22.31;37.61;99545.13;4937749;29;20017;-76
2022/11/01 05:55:18;;;;;;;;;;;;;;;22.74;36.84;99542.09;4937592;29;19919;-76
2022/11/01 05:57:43;;;;;;;;;;;;;;;23.19;36.16;99545.75;4937733;29;19925;-76
2022/11/01 06:00:09;;;;;;;;;;;;;;;23.61;35.29;99547.06;4922403;29;20287;-76
2022/11/01 06:02:34;;;;;;;;;;;;;;;24.01;34.43;99550.31;4939578;29;19977;-75
2022/11/01 06:05:00;;;;;;;;;;;;;;;24.45;33.58;99551.28;4937609;29;19919;-76
2022/11/01 06:07:25;;;;;;;;;;;;;;;24.88;32.54;99554.03;4937578;29;19918;-76
2022/11/01 06:09:51;;;;;;;;;;;;;;;25.33;31.78;99551.16;4937613;29;20367;-74
2022/11/01 06:12:16;;;;;;;;;;;;;;;25.78;30.98;99554.38;4937390;29;19923;-76
2022/11/01 06:14:41;;;;;;;;;;;;;;;26.29;29.88;99563.91;4938566;29;20437;-73
2022/11/01 06:17:07;;;;;;;;;;;;;;;26.81;29.71;99558.97;4938520;29;20005;-75
2022/11/01 06:19:32;;;;;;;;;;;;;;;27.13;29.38;99561.91;4943954;29;20441;-73
2022/11/01 06:21:58;;;;;;;;;;;;;;;27.62;27.24;99560.66;4937313;29;20417;-73
2022/11/01 06:24:23;;;;;;;;;;;;;;;28.18;26.43;99563.91;4937719;29;19926;-73
2022/11/01 06:26:48;;;;;;;;;;;;;;;28.95;25.39;99571.16;4921137;29;19922;-73
2022/11/01 06:29:14;;;;;;;;;;;;;;;29.67;24.15;99568.16;4936922;29;20286;-74
2022/11/01 06:31:39;;;;;;;;;;;;;;;30.43;23.10;99575.00;4937182;29;19919;-74
2022/11/01 06:34:04;;;;;;;;;;;;;;;31.25;22.32;99570.09;4921007;29;19918;-74
2022/11/01 06:36:29;;;;;;;;;;;;;;;31.76;21.38;99574.03;4920891;29;20336;-74
2022/11/01 06:38:55;;;;;;;;;;;;;;;32.25;20.83;99579.97;4936954;29;19919;-74
2022/11/01 06:41:20;;;;;;;;;;;;;;;32.64;20.20;99579.41;4921217;29;19919;-75
2022/11/01 06:43:49;;;;;;;;;;;;;;;32.78;19.68;99580.75;4921069;29;19919;-72
2022/11/01 06:46:14;;;;;;;;;;;;;;;32.79;19.73;99578.84;4936921;29;19977;-76
2022/11/01 06:48:39;;;;;;;;;;;;;;;32.71;20.66;99581.97;4936423;29;19919;-77
2022/11/01 06:51:05;;;;;;;;;;;;;;;32.31;20.52;99578.19;4936758;29;19919;-81
2022/11/01 06:53:30;;;;;;;;;;;;;;;31.87;20.38;99573.22;4936207;29;19986;-83
2022/11/01 06:55:57;;;;;;;;;;;;;;;31.45;20.79;99572.47;4937156;29;19926;-82
2022/11/01 06:58:22;;;;;;;;;;;;;;;30.99;21.52;99581.09;4936765;29;19954;-80
2022/11/01 07:00:48;;;;;;;;;;;;;;;30.65;21.67;99583.41;4939564;29;19919;-76
2022/11/01 07:03:13;;;;;;;;;;;;;;;30.49;22.21;99584.88;4938314;29;19990;-73
2022/11/01 07:05:39;;;;;;;;;;;;;;;30.45;22.09;99572.09;4938891;29;19923;-78
2022/11/01 07:08:05;;;;;;;;;;;;;;;30.34;22.01;99576.31;4953238;29;19925;-76
2022/11/01 07:10:30;;;;;;;;;;;;;;;30.25;22.49;99572.28;4954788;28;19926;-75
2022/11/01 07:12:59;;;;;;;;;;;;;;;30.13;22.61;99573.06;4954443;28;19923;-72
2022/11/01 07:15:24;;;;;;;;;;;;;;;30.12;23.14;99570.59;4954852;29;19925;-73
2022/11/01 07:17:53;;;;;;;;;;;;;;;30.11;22.60;99564.38;4954334;28;19918;-75
2022/11/01 07:20:18;;;;;;;;;;;;;;;30.21;22.99;99569.22;4954509;28;20317;-73
2022/11/01 07:22:44;;;;;;;;;;;;;;;30.45;22.68;99572.88;4954575;28;19918;-73
2022/11/01 07:25:09;;;;;;;;;;;;;;;30.62;22.67;99567.69;4950677;28;19926;-75
2022/11/01 07:27:35;;;;;;;;;;;;;;;30.76;22.43;99571.03;4954075;29;19918;-73
2022/11/01 07:30:01;;;;;;;;;;;;;;;30.81;22.27;99563.06;4953977;29;20423;-73
2022/11/01 07:32:26;;;;;;;;;;;;;;;30.90;22.26;99566.28;4954690;28;19961;-73
2022/11/01 07:34:52;;;;;;;;;;;;;;;30.98;22.57;99571.38;4955036;29;20001;-73
2022/11/01 07:37:17;;;;;;;;;;;;;;;31.13;22.54;99570.91;4954805;29;20301;-73
2022/11/01 07:39:42;;;;;;;;;;;;;;;31.24;22.79;99569.31;4954650;29;19922;-73
2022/11/01 07:42:08;;;;;;;;;;;;;;;31.23;22.36;99570.34;4954752;29;19925;-72
2022/11/01 07:44:33;;;;;;;;;;;;;;;31.23;22.41;99564.94;4954847;29;19922;-78
2022/11/01 07:46:58;;;;;;;;;;;;;;;30.59;21.94;99570.03;4954728;29;19929;-71
2022/11/01 07:49:23;;;;;;;;;;;;;;;30.61;22.21;99574.13;4954770;29;19918;-74
2022/11/01 07:51:49;;;;;;;;;;;;;;;30.77;22.81;99575.34;4970783;28;19974;-75
2022/11/01 07:54:14;;;;;;;;;;;;;;;30.88;24.40;99568.38;4954814;29;19919;-75
2022/11/01 07:56:39;;;;;;;;;;;;;;;31.03;23.23;99576.06;4955535;29;20561;-73
2022/11/01 07:59:05;;;;;;;;;;;;;;;30.94;22.40;99563.94;4971038;28;19918;-75
2022/11/01 08:01:30;;;;;;;;;;;;;;;30.85;22.29;99575.06;4970651;28;20370;-75
2022/11/01 08:03:55;;;;;;;;;;;;;;;30.83;22.40;99574.44;4953735;28;19918;-76
2022/11/01 08:06:21;;;;;;;;;;;;;;;30.77;23.47;99561.88;4954817;29;20348;-75
2022/11/01 08:08:46;;;;;;;;;;;;;;;30.61;22.47;99560.66;4954422;28;19962;-75
2022/11/01 08:11:12;;;;;;;;;;;;;;;30.55;23.04;99558.06;4954260;29;19919;-86
2022/11/01 08:13:37;;;;;;;;;;;;;;;30.88;23.90;99560.28;4954344;29;19953;-77
2022/11/01 08:16:02;;;;;;;;;;;;;;;31.45;23.46;99559.81;4955690;29;19969;-82
2022/11/01 08:18:28;;;;;;;;;;;;;;;31.98;22.75;99557.25;4955659;29;19922;-80
2022/11/01 08:20:53;;;;;;;;;;;;;;;32.46;22.08;99554.16;4970571;28;20366;-81
2022/11/01 08:23:19;;;;;;;;;;;;;;;32.90;21.65;99560.94;4954725;29;20394;-85
2022/11/01 08:25:44;;;;;;;;;;;;;;;33.29;20.92;99563.75;4954845;29;19919;-82
2022/11/01 08:28:10;;;;;;;;;;;;;;;33.64;20.54;99557.25;4954598;29;20381;-83
2022/11/01 08:30:36;;;;;;;;;;;;;;;33.94;20.31;99566.88;4954067;29;19926;-80
2022/11/01 08:33:03;;;;;;;;;;;;;;;34.20;20.01;99562.59;4954353;29;19918;-85
2022/11/01 08:35:28;;;;;;;;;;;;;;;34.40;19.54;99560.16;4953853;29;19929;-81
2022/11/01 08:37:54;;;;;;;;;;;;;;;34.61;19.00;99560.38;4938488;29;19922;-81
2022/11/01 08:40:19;;;;;;;;;;;;;;;34.79;18.76;99560.03;4938124;29;19922;-88
2022/11/01 08:42:45;;;;;;;;;;;;;;;35.04;18.88;99560.53;4922621;29;19990;-81
2022/11/01 08:45:10;;;;;;;;;;;;;;;35.22;18.65;99560.13;4954936;29;20022;-81
2022/11/01 08:47:36;;;;;;;;;;;;;;;35.43;18.32;99558.41;4938272;29;20361;-80
2022/11/01 08:50:01;;;;;;;;;;;;;;;35.59;18.21;99556.59;4938298;29;20377;-81
2022/11/01 08:52:27;;;;;;;;;;;;;;;35.73;18.06;99550.72;4955733;29;19925;-81
2022/11/01 08:54:52;;;;;;;;;;;;;;;35.93;17.73;99553.56;4937728;29;19969;-81
2022/11/01 08:57:17;;;;;;;;;;;;;;;36.23;17.67;99547.41;4921999;29;20017;-80
2022/11/01 08:59:43;;;;;;;;;;;;;;;37.04;16.46;99550.56;4937822;29;20386;-80
2022/11/01 09:02:11;;;;;;;;;;;;;;;38.16;15.71;99556.91;4938491;29;20464;-80
2022/11/01 09:04:36;;;;;;;;;;;;;;;39.36;14.42;99554.97;4937600;29;19926;-81
2022/11/01 09:07:02;;;;;;;;;;;;;;;40.54;13.30;99542.66;4922606;29;20005;-81
2022/11/01 09:09:28;;;;;;;;;;;;;;;41.11;13.05;99541.75;4937687;29;20052;-82
2022/11/01 09:11:53;;;;;;;;;;;;;;;41.01;13.17;99545.50;4922277;29;19922;-81
2022/11/01 09:14:22;;;;;;;;;;;;;;;40.25;13.55;99542.75;4921907;29;20013;-81
2022/11/01 09:16:48;;;;;;;;;;;;;;;39.37;14.31;99542.97;4921941;29;20306;-80
2022/11/01 09:19:13;;;;;;;;;;;;;;;38.93;14.60;99536.50;4937999;29;19918;-81
2022/11/01 09:21:38;;;;;;;;;;;;;;;38.48;15.00;99539.28;4921575;29;20002;-82
2022/11/01 09:24:04;;;;;;;;;;;;;;;38.39;15.34;99537.44;4937585;29;19925;-81
2022/11/01 09:26:29;;;;;;;;;;;;;;;38.29;15.51;99532.88;4937945;29;19918;-82
2022/11/01 09:28:57;;;;;;;;;;;;;;;38.19;15.38;99531.81;4937291;29;19919;-79
2022/11/01 09:31:22;;;;;;;;;;;;;;;38.11;15.22;99524.22;4937455;29;19919;-81
2022/11/01 09:33:47;;;;;;;;;;;;;;;38.07;15.41;99527.78;4937681;29;19918;-82
2022/11/01 09:36:13;;;;;;;;;;;;;;;38.07;15.69;99519.59;4941132;29;20069;-81
2022/11/01 09:38:38;;;;;;;;;;;;;;;38.07;15.54;99516.88;4957378;29;19933;-84
2022/11/01 09:41:11;;;;;;;;;;;;;;;38.01;15.58;99521.53;4957152;29;19978;-83
2022/11/01 09:43:36;;;;;;;;;;;;;;;38.03;15.73;99513.06;4953612;28;20393;-81
2022/11/01 09:46:03;;;;;;;;;;;;;;;37.99;15.40;99516.34;4953641;29;19918;-81
2022/11/01 09:48:28;;;;;;;;;;;;;;;37.96;15.68;99513.38;4953689;28;20295;-81
2022/11/01 09:50:54;;;;;;;;;;;;;;;37.91;15.49;99508.75;4954168;29;20021;-84
2022/11/01 09:53:24;;;;;;;;;;;;;;;37.87;15.75;99507.69;4953648;29;20306;-84
2022/11/01 09:55:58;;;;;;;;;;;;;;;37.78;15.87;99507.47;4953597;29;19989;-82
2022/11/01 09:58:23;;;;;;;;;;;;;;;37.71;15.71;99498.75;4955185;29;19919;-82
2022/11/01 10:00:55;;;;;;;;;;;;;;;37.62;16.09;99498.50;4969387;28;20297;-83
2022/11/01 10:03:32;;;;;;;;;;;;;;;37.49;16.25;99482.75;4953087;29;20350;-82
2022/11/01 10:05:57;;;;;;;;;;;;;;;37.39;16.34;99493.69;4954883;28;19977;-82
2022/11/01 10:08:26;;;;;;;;;;;;;;;37.21;16.42;99493.19;4969236;28;19919;-82
2022/11/01 10:10:55;;;;;;;;;;;;;;;37.03;16.23;99485.53;4969167;28;20030;-82
2022/11/01 10:13:31;;;;;;;;;;;;;;;36.86;16.44;99477.66;4953813;29;19918;-82
2022/11/01 10:16:00;;;;;;;;;;;;;;;36.71;16.89;99476.56;4953058;29;19969;-81
2022/11/01 10:18:29;;;;;;;;;;;;;;;36.56;16.95;99473.81;4953309;29;19918;-82
2022/11/01 10:20:55;;;;;;;;;;;;;;;36.42;17.11;99470.84;4953241;29;19923;-84
2022/11/01 10:23:24;;;;;;;;;;;;;;;36.30;17.05;99467.56;4953795;29;19925;-82
2022/11/01 10:25:53;;;;;;;;;;;;;;;36.13;17.35;99468.56;4953531;29;19929;-88
2022/11/01 10:28:27;;;;;;;;;;;;;;;35.96;17.28;99470.69;4956250;28;19918;-85
2022/11/01 10:30:53;;;;;;;;;;;;;;;35.81;17.42;99466.84;4956539;29;19961;-82
2022/11/01 10:33:29;;;;;;;;;;;;;;;35.66;17.72;99473.03;4956369;29;19990;-81
2022/11/01 10:36:01;;;;;;;;;;;;;;;35.47;17.85;99464.50;4956270;29;19934;-83
2022/11/01 10:38:39;;;;;;;;;;;;;;;35.27;18.08;99465.22;4956546;28;19919;-81
2022/11/01 10:41:10;;;;;;;;;;;;;;;35.08;18.02;99456.66;4956563;29;19918;-82
2022/11/01 10:43:45;;;;;;;;;;;;;;;34.89;18.44;99442.69;4956456;29;19919;-82
2022/11/01 10:46:12;;;;;;;;;;;;;;;34.70;18.74;99453.09;4957265;29;19918;-84
2022/11/01 10:48:40;;;;;;;;;;;;;;;34.56;18.49;99450.00;4956667;29;19925;-80
2022/11/01 10:51:06;;;;;;;;;;;;;;;34.41;18.72;99436.31;4956762;29;19974;-82
2022/11/01 10:53:32;;;;;;;;;;;;;;;34.27;18.85;99435.94;4956775;29;20020;-81
2022/11/01 10:56:07;;;;;;;;;;;;;;;34.15;18.83;99430.63;4956636;29;19973;-82
2022/11/01 10:58:37;;;;;;;;;;;;;;;34.01;19.07;99429.38;4956906;29;19918;-82
2022/11/01 11:01:03;;;;;;;;;;;;;;;33.89;19.02;99424.94;4955888;29;20413;-84
2022/11/01 11:03:29;;;;;;;;;;;;;;;33.76;19.66;99424.50;4956089;29;19919;-79
2022/11/01 11:05:55;;;;;;;;;;;;;;;33.62;19.16;99416.75;4956005;29;20279;-81
2022/11/01 11:08:21;;;;;;;;;;;;;;;33.48;19.70;99415.50;4955895;29;20020;-82
2022/11/01 11:10:46;;;;;;;;;;;;;;;33.37;19.79;99409.13;4955938;29;20298;-81
2022/11/01 11:13:12;;;;;;;;;;;;;;;33.25;19.96;99408.44;4955964;29;19919;-82
2022/11/01 11:15:43;;;;;;;;;;;;;;;33.12;19.93;99406.88;4955948;29;19919;-81
2022/11/01 11:18:13;;;;;;;;;;;;;;;32.97;20.48;99405.59;4972214;28;20470;-81
2022/11/01 11:20:39;;;;;;;;;;;;;;;32.86;20.22;99400.25;4955789;29;19919;-82
2022/11/01 11:23:07;;;;;;;;;;;;;;;32.73;20.42;99398.72;4955973;28;19918;-83
2022/11/01 11:25:33;;;;;;;;;;;;;;;32.58;20.45;99389.28;4955832;29;19922;-81
2022/11/01 11:27:58;;;;;;;;;;;;;;;32.47;20.78;99393.69;4955587;29;20006;-82
2022/11/01 11:30:25;;;;;;;;;;;;;;;32.36;20.92;99388.38;4955548;29;20342;-81
2022/11/01 11:32:52;;;;;;;;;;;;;;;32.23;20.83;99392.19;4955182;29;19987;-81
2022/11/01 11:35:18;;;;;;;;;;;;;;;32.10;21.00;99390.63;4955676;29;19926;-81
2022/11/01 11:37:51;;;;;;;;;;;;;;;31.95;21.26;99383.03;4955457;28;19985;-81
2022/11/01 11:40:24;;;;;;;;;;;;;;;31.81;21.38;99387.91;4955268;29;19934;-80
2022/11/01 11:42:53;;;;;;;;;;;;;;;31.65;21.38;99392.19;4956442;29;19923;-80
2022/11/01 11:45:29;;;;;;;;;;;;;;;31.49;21.51;99376.72;4955452;29;19919;-79
2022/11/01 11:47:54;;;;;;;;;;;;;;;31.36;21.38;99380.53;4955332;28;19930;-80
2022/11/01 11:50:20;;;;;;;;;;;;;;;31.20;21.70;99364.00;4954813;29;19922;-80
2022/11/01 11:52:46;;;;;;;;;;;;;;;31.07;21.76;99372.34;4971189;28;19924;-76
2022/11/01 11:55:33;;;;;;;;;;;;;;;30.91;22.02;99373.03;4954899;29;20366;-81
2022/11/01 11:57:58;;;;;;;;;;;;;;;30.69;21.82;99372.78;4970945;28;19934;-81
2022/11/01 12:00:25;;;;;;;;;;;;;;;30.56;21.97;99366.56;4954530;29;19919;-79
2022/11/01 12:02:50;;;;;;;;;;;;;;;30.44;22.07;99371.94;4954779;29;19919;-79
2022/11/01 12:05:17;;;;;;;;;;;;;;;30.30;22.68;99365.09;4959427;29;19919;-81
2022/11/01 12:07:49;;;;;;;;;;;;;;;30.19;22.80;99363.19;4963432;29;19969;-80
2022/11/01 12:10:33;;;;;;;;;;;;;;;30.04;22.91;99367.13;4956737;29;19918;-82
2022/11/01 12:12:59;;;;;;;;;;;;;;;29.88;22.82;99357.00;4956070;29;19930;-81
2022/11/01 12:15:31;;;;;;;;;;;;;;;29.66;23.07;99359.34;4954346;29;19969;-83
2022/11/01 12:18:06;;;;;;;;;;;;;;;29.57;23.21;99350.75;4954466;29;19922;-81
2022/11/01 12:20:34;;;;;;;;;;;;;;;29.45;23.26;99353.41;4954741;29;19923;-81
2022/11/01 12:23:20;;;;;;;;;;;;;;;29.36;23.15;99355.56;4970516;28;19922;-81
2022/11/01 12:25:45;;;;;;;;;;;;;;;29.28;23.38;99350.50;4954947;29;19918;-82
2022/11/01 12:28:14;;;;;;;;;;;;;;;29.17;23.69;99349.34;4954166;29;19970;-83
2022/11/01 12:30:39;;;;;;;;;;;;;;;29.01;24.05;99348.06;4970246;28;20009;-81
2022/11/01 12:33:23;;;;;;;;;;;;;;;28.95;23.84;99348.13;4953834;29;20370;-80
2022/11/01 12:35:48;;;;;;;;;;;;;;;28.86;24.09;99350.28;4955288;29;19977;-80
2022/11/01 12:38:34;;;;;;;;;;;;;;;28.76;24.23;99356.16;4938331;29;19918;-80
2022/11/01 12:41:18;;;;;;;;;;;;;;;28.68;24.42;99343.81;4938251;29;19977;-82
2022/11/01 12:43:48;;;;;;;;;;;;;;;28.63;24.60;99342.84;4953977;29;20349;-80
2022/11/01 12:46:31;;;;;;;;;;;;;;;28.47;24.54;99342.34;4937886;29;20476;-81
2022/11/01 12:49:00;;;;;;;;;;;;;;;28.40;24.72;99346.09;4953911;29;19918;-80
2022/11/01 12:51:26;;;;;;;;;;;;;;;28.36;24.72;99340.38;4937510;29;20017;-81
2022/11/01 12:53:59;;;;;;;;;;;;;;;28.29;24.95;99345.78;4937668;29;20509;-80
2022/11/01 12:56:25;;;;;;;;;;;;;;;28.30;24.88;99349.28;4937555;29;19919;-81